TAF KIWA
KIWA 081720Z 0818/0918 14005KT P6SM BKN120 BKN200 FM082100 27004KT P6SM SCT120 BKN200 FM090400 13006KT P6SM FEW070 SCT250=
METAR KIWA
WC KIWA
WS KIWA
WV KIWA